createdAt,value
2017-11-30T00:01:37.963Z,36.60
2017-11-30T00:04:04.183Z,40.00
2017-11-30T00:06:30.494Z,36.00
2017-11-30T00:08:56.735Z,36.13
2017-11-30T00:11:23.258Z,42.63
2017-11-30T00:13:49.543Z,40.60
2017-11-30T00:16:15.874Z,38.53
2017-11-30T00:18:42.139Z,40.50
2017-11-30T00:21:08.477Z,39.87
2017-11-30T00:23:34.811Z,34.60
2017-11-30T00:26:01.897Z,41.97
2017-11-30T00:28:28.157Z,36.80
2017-11-30T00:30:54.448Z,40.90
2017-11-30T00:33:20.725Z,38.27
2017-11-30T00:35:47.113Z,38.13
2017-11-30T00:38:13.460Z,37.57
2017-11-30T00:40:39.807Z,40.60
2017-11-30T00:43:18.405Z,40.77
2017-11-30T00:45:44.935Z,43.03
2017-11-30T00:48:11.203Z,39.10
2017-11-30T00:50:37.455Z,40.93
2017-11-30T00:53:04.457Z,44.73
2017-11-30T00:55:30.788Z,45.33
2017-11-30T00:57:57.247Z,43.80
2017-11-30T01:00:24.282Z,37.20
2017-11-30T01:02:50.715Z,36.60
2017-11-30T01:05:24.025Z,43.73
2017-11-30T01:07:51.015Z,42.47
2017-11-30T01:10:17.306Z,43.57
2017-11-30T01:12:44.412Z,41.07
2017-11-30T01:15:10.776Z,43.33
2017-11-30T01:17:37.804Z,43.17
2017-11-30T01:20:04.223Z,36.70
2017-11-30T01:22:30.603Z,45.93
2017-11-30T01:24:56.825Z,40.50
2017-11-30T01:27:23.837Z,43.60
2017-11-30T01:29:50.106Z,41.37
2017-11-30T01:32:17.137Z,39.80
2017-11-30T01:34:43.408Z,46.77
2017-11-30T01:37:09.693Z,37.50
2017-11-30T01:39:36.715Z,36.10
2017-11-30T01:42:03.030Z,36.60
2017-11-30T01:44:29.319Z,41.97
2017-11-30T01:46:56.289Z,45.33
2017-11-30T01:49:22.558Z,41.90
2017-11-30T01:51:48.828Z,40.40
2017-11-30T01:54:15.144Z,40.30
2017-11-30T01:56:41.416Z,38.27
2017-11-30T01:59:08.413Z,40.03
2017-11-30T02:01:35.477Z,38.20
2017-11-30T02:04:01.719Z,36.30
2017-11-30T02:06:27.982Z,38.33
2017-11-30T02:08:54.378Z,37.27
2017-11-30T02:11:20.681Z,39.90
2017-11-30T02:13:47.037Z,43.10
2017-11-30T02:16:13.303Z,39.33
2017-11-30T02:18:39.667Z,42.50
2017-11-30T02:21:05.998Z,38.80
2017-11-30T02:23:33.036Z,45.20
2017-11-30T02:26:00.098Z,40.77
2017-11-30T02:28:27.157Z,38.07
2017-11-30T02:30:53.459Z,38.40
2017-11-30T02:33:21.197Z,40.30
2017-11-30T02:35:47.520Z,43.10
2017-11-30T02:38:14.592Z,44.83
2017-11-30T02:40:40.891Z,42.17
2017-11-30T02:43:07.172Z,37.20
2017-11-30T02:45:34.282Z,42.47
2017-11-30T02:48:01.409Z,36.40
2017-11-30T02:50:27.779Z,41.37
2017-11-30T02:52:55.028Z,45.83
2017-11-30T02:55:21.362Z,43.30
2017-11-30T02:57:48.581Z,42.70
2017-11-30T03:00:14.871Z,50.70
2017-11-30T03:02:41.172Z,46.57
2017-11-30T03:05:07.529Z,41.43
2017-11-30T03:07:33.849Z,45.67
2017-11-30T03:10:00.134Z,46.67
2017-11-30T03:12:27.155Z,45.43
2017-11-30T03:14:53.583Z,46.10
2017-11-30T03:17:19.915Z,46.47
2017-11-30T03:19:46.277Z,53.03
2017-11-30T03:22:12.543Z,41.23
2017-11-30T03:24:39.577Z,45.00
2017-11-30T03:27:05.872Z,49.60
2017-11-30T03:29:32.184Z,42.43
2017-11-30T03:31:58.503Z,45.80
2017-11-30T03:34:24.787Z,44.87
2017-11-30T03:36:51.097Z,41.07
2017-11-30T03:39:17.422Z,46.27
2017-11-30T03:41:43.729Z,44.43
2017-11-30T03:44:10.056Z,45.63
2017-11-30T03:46:36.427Z,42.43
2017-11-30T03:49:02.734Z,43.87
2017-11-30T03:51:29.003Z,46.40
2017-11-30T03:53:55.255Z,49.40
2017-11-30T03:56:21.493Z,49.43
2017-11-30T03:58:47.788Z,46.20
2017-11-30T04:01:14.126Z,44.37
2017-11-30T04:03:41.168Z,47.87
2017-11-30T04:06:07.508Z,42.23
2017-11-30T04:08:34.495Z,47.17
2017-11-30T04:11:00.785Z,45.63
2017-11-30T04:13:27.753Z,49.43
2017-11-30T04:15:53.996Z,44.67
2017-11-30T04:18:20.245Z,41.30
2017-11-30T04:20:46.531Z,41.53
2017-11-30T04:23:12.764Z,44.00
2017-11-30T04:25:39.011Z,44.57
2017-11-30T04:28:05.286Z,43.27
2017-11-30T04:30:31.551Z,50.80
2017-11-30T04:32:57.824Z,39.10
2017-11-30T04:35:24.043Z,39.33
2017-11-30T04:37:50.324Z,41.20
2017-11-30T04:40:16.681Z,43.57
2017-11-30T04:42:43.823Z,40.17
2017-11-30T04:45:10.172Z,47.20
2017-11-30T04:47:36.412Z,43.20
2017-11-30T04:50:02.756Z,50.13
2017-11-30T04:52:29.138Z,41.80
2017-11-30T04:55:02.391Z,38.20
2017-11-30T04:57:28.637Z,42.57
2017-11-30T04:59:55.671Z,41.90
2017-11-30T05:02:22.754Z,41.80
2017-11-30T05:04:49.039Z,41.57
2017-11-30T05:07:15.352Z,39.23
2017-11-30T05:09:41.633Z,38.80
2017-11-30T05:12:07.924Z,44.90
2017-11-30T05:14:34.257Z,44.00
2017-11-30T05:17:00.571Z,42.07
2017-11-30T05:19:27.109Z,50.47
2017-11-30T05:21:53.385Z,45.47
2017-11-30T05:24:19.668Z,49.17
2017-11-30T05:26:46.091Z,46.70
2017-11-30T05:29:12.457Z,47.40
2017-11-30T05:31:39.441Z,49.37
2017-11-30T05:34:05.781Z,47.27
2017-11-30T05:36:32.044Z,48.83
2017-11-30T05:38:58.307Z,49.43
2017-11-30T05:41:25.635Z,48.60
2017-11-30T05:43:51.957Z,48.67
2017-11-30T05:46:18.266Z,50.13
2017-11-30T05:48:44.539Z,53.63
2017-11-30T05:51:10.981Z,54.00
2017-11-30T05:53:37.302Z,51.03
2017-11-30T05:56:03.596Z,51.33
2017-11-30T05:58:29.847Z,50.60
2017-11-30T06:00:56.909Z,52.17
2017-11-30T06:03:24.058Z,50.83
2017-11-30T06:05:50.319Z,52.40
2017-11-30T06:08:16.710Z,43.50
2017-11-30T06:10:42.946Z,49.87
2017-11-30T06:13:10.010Z,48.57
2017-11-30T06:15:36.333Z,47.67
2017-11-30T06:18:02.598Z,44.93
2017-11-30T06:20:28.912Z,51.13
2017-11-30T06:22:55.156Z,51.77
2017-11-30T06:25:21.414Z,47.10
2017-11-30T06:27:47.682Z,42.47
2017-11-30T06:30:13.947Z,47.47
2017-11-30T06:32:40.209Z,65.53
2017-11-30T06:35:06.494Z,46.07
2017-11-30T06:37:32.748Z,46.70
2017-11-30T06:39:59.015Z,45.00
2017-11-30T06:42:25.327Z,51.13
2017-11-30T06:44:52.336Z,51.13
2017-11-30T06:47:18.697Z,48.70
2017-11-30T06:49:45.772Z,48.30
2017-11-30T06:52:12.077Z,45.93
2017-11-30T06:54:38.474Z,43.10
2017-11-30T06:57:05.534Z,45.07
2017-11-30T06:59:31.860Z,54.93
2017-11-30T07:01:58.144Z,53.50
2017-11-30T07:04:24.584Z,45.70
2017-11-30T07:06:50.972Z,52.43
2017-11-30T07:09:18.162Z,48.70
2017-11-30T07:11:44.526Z,52.00
2017-11-30T07:14:10.858Z,49.73
2017-11-30T07:16:37.147Z,45.70
2017-11-30T07:19:03.556Z,44.47
2017-11-30T07:21:30.553Z,44.37
2017-11-30T07:23:56.790Z,46.83
2017-11-30T07:26:23.094Z,51.70
2017-11-30T07:28:49.367Z,49.23
2017-11-30T07:31:15.696Z,47.37
2017-11-30T07:33:42.695Z,43.63
2017-11-30T07:36:09.030Z,46.77
2017-11-30T07:38:35.284Z,48.00
2017-11-30T07:41:01.523Z,46.50
2017-11-30T07:43:28.656Z,55.00
2017-11-30T07:45:55.257Z,43.23
2017-11-30T07:48:21.625Z,51.60
2017-11-30T07:50:48.469Z,52.43
2017-11-30T07:53:15.102Z,45.17
2017-11-30T07:55:41.348Z,50.47
2017-11-30T07:58:07.640Z,57.03
2017-11-30T08:00:33.924Z,50.53
2017-11-30T08:03:00.232Z,52.87
2017-11-30T08:05:26.962Z,47.23
2017-11-30T08:07:53.192Z,46.87
2017-11-30T08:10:19.542Z,50.43
2017-11-30T08:12:46.094Z,54.97
2017-11-30T08:15:12.521Z,58.50
2017-11-30T08:17:39.676Z,45.67
2017-11-30T08:20:06.718Z,45.73
2017-11-30T08:22:33.353Z,52.23
2017-11-30T08:24:59.691Z,48.50
2017-11-30T08:27:26.775Z,48.93
2017-11-30T08:29:53.103Z,51.00
2017-11-30T08:32:19.411Z,47.20
2017-11-30T08:34:46.542Z,46.13
2017-11-30T08:37:13.583Z,45.27
2017-11-30T08:39:40.402Z,50.27
2017-11-30T08:42:06.725Z,47.87
2017-11-30T08:44:33.161Z,48.70
2017-11-30T08:46:59.796Z,49.17
2017-11-30T08:49:26.075Z,51.97
2017-11-30T08:51:52.584Z,54.17
2017-11-30T08:54:19.327Z,53.77
2017-11-30T08:56:45.665Z,49.17
2017-11-30T08:59:13.368Z,51.37
2017-11-30T09:01:39.827Z,47.70
2017-11-30T09:04:06.096Z,51.97
2017-11-30T09:06:33.135Z,53.10
2017-11-30T09:09:00.331Z,47.37
2017-11-30T09:11:33.842Z,56.60
2017-11-30T09:14:00.171Z,53.30
2017-11-30T09:16:26.543Z,59.30
2017-11-30T09:18:52.827Z,58.77
2017-11-30T09:21:19.223Z,54.77
2017-11-30T09:23:45.552Z,63.00
2017-11-30T09:26:11.831Z,68.83
2017-11-30T09:28:38.173Z,51.17
2017-11-30T09:31:04.430Z,56.63
2017-11-30T09:33:31.499Z,50.90
2017-11-30T09:35:58.607Z,52.97
2017-11-30T09:38:24.904Z,49.53
2017-11-30T09:40:51.148Z,48.83
2017-11-30T09:43:17.408Z,47.33
2017-11-30T09:45:44.434Z,47.87
2017-11-30T09:48:10.763Z,57.13
2017-11-30T09:50:37.290Z,47.43
2017-11-30T09:53:03.791Z,49.80
2017-11-30T09:55:30.098Z,40.63
2017-11-30T09:57:56.381Z,45.40
2017-11-30T10:00:22.688Z,48.33
2017-11-30T10:02:49.042Z,47.57
2017-11-30T10:05:15.275Z,44.47
2017-11-30T10:07:41.706Z,66.93
2017-11-30T10:10:08.101Z,45.70
2017-11-30T10:12:34.493Z,54.75
2017-11-30T10:15:01.533Z,62.60
2017-11-30T10:17:27.841Z,44.90
2017-11-30T10:19:54.196Z,42.00
2017-11-30T10:22:20.532Z,44.43
2017-11-30T10:24:46.817Z,47.53
2017-11-30T10:27:13.873Z,45.13
2017-11-30T10:29:40.188Z,47.53
2017-11-30T10:32:06.476Z,69.73
2017-11-30T10:34:34.640Z,47.30
2017-11-30T10:37:01.591Z,60.37
2017-11-30T10:39:28.327Z,43.83
2017-11-30T10:41:55.212Z,41.17
2017-11-30T10:44:21.575Z,47.40
2017-11-30T10:46:47.877Z,43.47
2017-11-30T10:49:14.138Z,58.17
2017-11-30T10:51:42.127Z,48.57
2017-11-30T10:54:08.495Z,42.50
2017-11-30T10:56:35.424Z,44.47
2017-11-30T10:59:02.859Z,44.90
2017-11-30T11:01:30.468Z,48.03
2017-11-30T11:03:57.753Z,41.17
2017-11-30T11:06:24.063Z,46.50
2017-11-30T11:08:50.426Z,49.90
2017-11-30T11:11:17.615Z,46.07
2017-11-30T11:13:44.141Z,42.57
2017-11-30T11:16:10.469Z,49.53
2017-11-30T11:18:37.865Z,48.43
2017-11-30T11:21:04.963Z,48.10
2017-11-30T11:23:31.330Z,50.70
2017-11-30T11:25:58.415Z,52.00
2017-11-30T11:28:24.762Z,49.90
2017-11-30T11:30:53.012Z,47.67
2017-11-30T11:33:20.202Z,52.47
2017-11-30T11:35:46.647Z,48.73
2017-11-30T11:38:13.017Z,51.77
2017-11-30T11:40:39.300Z,51.13
2017-11-30T11:43:06.363Z,48.47
2017-11-30T11:45:32.706Z,46.30
2017-11-30T11:48:00.262Z,45.03
2017-11-30T11:50:26.916Z,47.40
2017-11-30T11:52:54.344Z,48.97
2017-11-30T11:55:20.877Z,47.30
2017-11-30T11:57:47.188Z,35.67
2017-11-30T12:00:13.499Z,40.73
2017-11-30T12:02:39.903Z,49.83
2017-11-30T12:05:07.005Z,37.10
2017-11-30T12:07:34.077Z,45.03
2017-11-30T12:10:00.408Z,41.53
2017-11-30T12:12:27.397Z,50.33
2017-11-30T12:14:54.237Z,48.80
2017-11-30T12:17:20.575Z,52.17
2017-11-30T12:19:46.859Z,44.13
2017-11-30T12:22:13.215Z,46.10
2017-11-30T12:24:39.891Z,52.73
2017-11-30T12:27:06.198Z,42.50
2017-11-30T12:29:32.623Z,48.10
2017-11-30T12:31:58.943Z,49.00
2017-11-30T12:34:26.098Z,46.50
2017-11-30T12:36:52.528Z,49.00
2017-11-30T12:39:18.883Z,48.23
2017-11-30T12:41:45.949Z,48.90
2017-11-30T12:44:12.251Z,49.90
2017-11-30T12:46:39.430Z,54.17
2017-11-30T12:49:05.752Z,47.23
2017-11-30T12:51:32.084Z,46.53
2017-11-30T12:53:58.418Z,47.97
2017-11-30T12:56:24.754Z,47.57
2017-11-30T12:58:51.155Z,46.80
2017-11-30T13:01:17.753Z,46.93
2017-11-30T13:03:45.235Z,42.20
2017-11-30T13:06:11.580Z,54.63
2017-11-30T13:08:37.903Z,49.03
2017-11-30T13:11:05.011Z,57.00
2017-11-30T13:13:31.325Z,49.17
2017-11-30T13:15:57.643Z,49.73
2017-11-30T13:18:24.505Z,56.07
2017-11-30T13:20:50.825Z,50.50
2017-11-30T13:23:17.190Z,50.23
2017-11-30T13:25:43.457Z,55.93
2017-11-30T13:28:10.479Z,42.23
2017-11-30T13:30:37.123Z,51.40
2017-11-30T13:33:04.190Z,43.33
2017-11-30T13:35:37.395Z,40.70
2017-11-30T13:38:03.715Z,38.13
2017-11-30T13:40:30.038Z,41.37
2017-11-30T13:42:56.414Z,40.23
2017-11-30T13:45:22.721Z,39.97
2017-11-30T13:47:49.021Z,46.73
2017-11-30T13:50:16.034Z,47.10
2017-11-30T13:52:42.386Z,50.77
2017-11-30T13:55:08.677Z,48.13
2017-11-30T13:57:35.146Z,42.03
2017-11-30T14:00:01.475Z,44.87
2017-11-30T14:02:27.782Z,41.50
2017-11-30T14:04:54.183Z,45.73
2017-11-30T14:07:20.517Z,49.60
2017-11-30T14:09:46.758Z,51.60
2017-11-30T14:12:13.120Z,49.13
2017-11-30T14:14:39.368Z,53.43
2017-11-30T14:17:06.434Z,53.20
2017-11-30T14:19:32.735Z,54.63
2017-11-30T14:21:59.917Z,52.47
2017-11-30T14:24:26.969Z,59.07
2017-11-30T14:26:53.281Z,54.60
2017-11-30T14:29:19.541Z,57.90
2017-11-30T14:31:45.887Z,57.47
2017-11-30T14:34:12.257Z,57.13
2017-11-30T14:36:38.659Z,61.07
2017-11-30T14:39:04.993Z,62.50
2017-11-30T14:41:31.358Z,62.70
2017-11-30T14:43:58.432Z,56.50
2017-11-30T14:46:24.755Z,57.43
2017-11-30T14:48:51.044Z,59.33
2017-11-30T14:51:17.299Z,52.07
2017-11-30T14:53:44.309Z,62.13
2017-11-30T14:56:10.587Z,55.70
2017-11-30T14:58:36.934Z,61.17
2017-11-30T15:01:04.049Z,52.50
2017-11-30T15:03:31.090Z,54.23
2017-11-30T15:05:58.202Z,51.97
2017-11-30T15:08:24.756Z,52.83
2017-11-30T15:10:51.115Z,48.03
2017-11-30T15:13:18.197Z,50.20
2017-11-30T15:15:44.509Z,50.63
2017-11-30T15:18:10.832Z,49.50
2017-11-30T15:20:38.380Z,50.93
2017-11-30T15:23:04.722Z,58.43
2017-11-30T15:25:31.146Z,57.40
2017-11-30T15:27:57.630Z,53.20
2017-11-30T15:30:24.235Z,61.10
2017-11-30T15:32:50.573Z,62.83
2017-11-30T15:35:17.118Z,58.23
2017-11-30T15:37:43.430Z,55.10
2017-11-30T15:40:09.882Z,56.80
2017-11-30T15:42:37.286Z,55.00
2017-11-30T15:45:04.366Z,57.87
2017-11-30T15:47:30.737Z,58.87
2017-11-30T15:49:57.030Z,51.07
2017-11-30T15:52:23.369Z,54.87
2017-11-30T15:54:50.075Z,56.70
2017-11-30T15:57:16.347Z,58.40
2017-11-30T15:59:42.874Z,58.63
2017-11-30T16:02:10.445Z,56.73
2017-11-30T16:04:37.216Z,63.10
2017-11-30T16:07:04.360Z,52.20
2017-11-30T16:09:31.418Z,53.20
2017-11-30T16:11:57.743Z,50.17
2017-11-30T16:14:24.022Z,56.43
2017-11-30T16:16:50.792Z,55.33
2017-11-30T16:19:17.958Z,51.93
2017-11-30T16:21:44.306Z,54.23
2017-11-30T16:24:10.543Z,60.20
2017-11-30T16:26:36.849Z,68.10
2017-11-30T16:29:03.158Z,62.53
2017-11-30T16:31:29.415Z,74.87
2017-11-30T16:33:55.711Z,62.10
2017-11-30T16:36:22.000Z,56.93
2017-11-30T16:38:48.338Z,59.67
2017-11-30T16:41:14.623Z,69.57
2017-11-30T16:43:41.705Z,66.43
2017-11-30T16:46:08.807Z,74.80
2017-11-30T16:48:35.080Z,68.87
2017-11-30T16:51:01.378Z,72.00
2017-11-30T16:53:27.642Z,65.80
2017-11-30T16:55:54.048Z,58.80
2017-11-30T16:58:21.151Z,54.23
2017-11-30T17:00:48.255Z,49.43
2017-11-30T17:03:15.351Z,52.03
2017-11-30T17:05:41.672Z,45.00
2017-11-30T17:08:08.059Z,41.20
2017-11-30T17:10:35.384Z,41.40
2017-11-30T17:13:01.720Z,39.77
2017-11-30T17:15:28.078Z,49.60
2017-11-30T17:17:55.143Z,38.70
2017-11-30T17:20:21.770Z,41.23
2017-11-30T17:22:48.104Z,42.07
2017-11-30T17:25:16.218Z,43.23
2017-11-30T17:27:42.510Z,38.90
2017-11-30T17:30:08.882Z,36.20
2017-11-30T17:32:35.516Z,44.60
2017-11-30T17:35:01.966Z,38.67
2017-11-30T17:37:28.382Z,42.17
2017-11-30T17:39:55.464Z,42.80
2017-11-30T17:42:22.532Z,44.33
2017-11-30T17:44:49.061Z,38.57
2017-11-30T17:47:15.826Z,41.77
2017-11-30T17:49:42.885Z,42.17
2017-11-30T17:52:09.233Z,47.73
2017-11-30T17:54:35.507Z,44.00
2017-11-30T17:57:02.507Z,43.50
2017-11-30T17:59:28.743Z,45.93
2017-11-30T18:01:55.107Z,44.67
2017-11-30T18:04:22.206Z,44.20
2017-11-30T18:06:48.548Z,44.67
2017-11-30T18:09:14.836Z,40.50
2017-11-30T18:11:41.120Z,45.10
2017-11-30T18:14:07.424Z,47.53
2017-11-30T18:16:33.689Z,45.37
2017-11-30T18:19:00.751Z,44.60
2017-11-30T18:21:27.747Z,44.37
2017-11-30T18:23:54.069Z,47.60
2017-11-30T18:26:20.382Z,46.70
2017-11-30T18:28:46.678Z,40.37
2017-11-30T18:31:13.715Z,38.93
2017-11-30T18:33:40.444Z,46.33
2017-11-30T18:36:07.017Z,37.83
2017-11-30T18:38:34.936Z,35.43
2017-11-30T18:41:03.032Z,36.47
2017-11-30T18:43:29.932Z,41.47
2017-11-30T18:45:56.695Z,35.33
2017-11-30T18:48:25.147Z,42.77
2017-11-30T18:53:55.145Z,41.27
2017-11-30T18:56:23.009Z,41.53
2017-11-30T18:58:57.314Z,36.40
2017-11-30T19:01:25.491Z,41.43
2017-11-30T19:03:52.616Z,36.00
2017-11-30T19:06:18.954Z,38.20
2017-11-30T19:08:46.462Z,45.23
2017-11-30T19:11:12.736Z,41.27
2017-11-30T19:13:39.365Z,48.67
2017-11-30T19:16:06.367Z,41.00
2017-11-30T19:18:33.136Z,50.87
2017-11-30T19:20:59.447Z,40.40
2017-11-30T19:23:25.775Z,44.23
2017-11-30T19:25:52.113Z,35.97
2017-11-30T19:28:18.408Z,38.90
2017-11-30T19:30:45.517Z,36.60
2017-11-30T19:33:13.921Z,41.73
2017-11-30T19:35:40.286Z,44.73
2017-11-30T19:38:06.701Z,43.73
2017-11-30T19:40:33.296Z,43.57
2017-11-30T19:42:59.709Z,43.23
2017-11-30T19:45:25.964Z,41.00
2017-11-30T19:47:52.565Z,53.90
2017-11-30T19:50:19.891Z,51.40
2017-11-30T19:52:46.873Z,50.13
2017-11-30T19:55:13.365Z,44.83
2017-11-30T19:57:39.996Z,46.10
2017-11-30T20:00:07.895Z,47.60
2017-11-30T20:02:34.165Z,49.83
2017-11-30T20:05:02.035Z,55.53
2017-11-30T20:07:28.735Z,52.30
2017-11-30T20:09:54.972Z,52.30
2017-11-30T20:12:21.536Z,52.10
2017-11-30T20:14:50.877Z,41.50
2017-11-30T20:17:17.942Z,39.13
2017-11-30T20:19:44.411Z,41.00
2017-11-30T20:22:10.674Z,44.93
2017-11-30T20:24:37.693Z,44.90
2017-11-30T20:27:04.015Z,38.20
2017-11-30T20:29:30.283Z,39.97
2017-11-30T20:31:57.315Z,41.40
2017-11-30T20:34:23.623Z,48.03
2017-11-30T20:36:49.882Z,42.27
2017-11-30T20:39:16.935Z,39.80
2017-11-30T20:41:43.987Z,42.03
2017-11-30T20:44:11.030Z,41.43
2017-11-30T20:46:37.340Z,40.33
2017-11-30T20:49:04.385Z,40.10
2017-11-30T20:51:30.705Z,35.93
2017-11-30T20:53:57.552Z,46.57
2017-11-30T20:56:23.916Z,39.77
2017-11-30T20:58:50.243Z,41.03
2017-11-30T21:01:17.266Z,39.07
2017-11-30T21:03:44.382Z,41.70
2017-11-30T21:06:11.776Z,40.00
2017-11-30T21:08:38.040Z,46.73
2017-11-30T21:11:04.366Z,43.00
2017-11-30T21:13:30.728Z,38.40
2017-11-30T21:15:57.077Z,40.07
2017-11-30T21:18:24.295Z,36.70
2017-11-30T21:20:50.630Z,33.07
2017-11-30T21:23:16.954Z,37.83
2017-11-30T21:25:43.739Z,35.27
2017-11-30T21:28:10.968Z,35.33
2017-11-30T21:30:38.041Z,40.53
2017-11-30T21:33:04.410Z,44.17
2017-11-30T21:38:05.143Z,35.83
2017-11-30T21:40:32.103Z,34.93
2017-11-30T21:42:58.322Z,38.30
2017-11-30T21:45:24.581Z,33.47
2017-11-30T21:47:50.875Z,33.07
2017-11-30T21:50:18.149Z,34.07
2017-11-30T21:52:44.426Z,40.03
2017-11-30T21:55:10.783Z,34.23
2017-11-30T21:57:37.115Z,33.50
2017-11-30T22:00:03.412Z,30.60
2017-11-30T22:02:36.514Z,40.23
2017-11-30T22:05:02.866Z,36.13
2017-11-30T22:07:29.156Z,35.33
2017-11-30T22:09:55.607Z,34.50
2017-11-30T22:12:22.461Z,35.60
2017-11-30T22:14:48.760Z,40.00
2017-11-30T22:17:15.074Z,35.93
2017-11-30T22:19:41.382Z,34.73
2017-11-30T22:22:07.655Z,33.87
2017-11-30T22:24:34.091Z,36.63
2017-11-30T22:27:00.346Z,35.13
2017-11-30T22:29:27.494Z,32.87
2017-11-30T22:31:54.063Z,33.70
2017-11-30T22:34:20.371Z,34.20
2017-11-30T22:36:47.375Z,34.60
2017-11-30T22:39:13.665Z,37.60
2017-11-30T22:41:39.982Z,32.77
2017-11-30T22:44:06.260Z,36.40
2017-11-30T22:46:33.353Z,34.00
2017-11-30T22:48:59.714Z,35.03
2017-11-30T22:51:25.975Z,34.67
2017-11-30T22:53:52.314Z,34.77
2017-11-30T22:56:18.595Z,34.67
2017-11-30T22:58:44.866Z,31.63
2017-11-30T23:01:11.140Z,39.17
2017-11-30T23:03:37.380Z,39.10
2017-11-30T23:06:03.673Z,42.50
2017-11-30T23:08:30.673Z,49.17
2017-11-30T23:10:57.215Z,47.47
2017-11-30T23:13:23.682Z,46.37
2017-11-30T23:15:50.030Z,41.47
2017-11-30T23:18:17.339Z,40.20
2017-11-30T23:20:43.598Z,39.80
2017-11-30T23:23:10.866Z,38.37
2017-11-30T23:25:37.153Z,38.67
2017-11-30T23:28:04.229Z,43.20
2017-11-30T23:30:30.541Z,36.47
2017-11-30T23:32:56.983Z,43.43
2017-11-30T23:35:24.265Z,46.60
2017-11-30T23:37:50.585Z,39.33
2017-11-30T23:40:17.058Z,33.80
2017-11-30T23:42:44.186Z,37.83
2017-11-30T23:45:10.654Z,42.13
2017-11-30T23:47:36.917Z,35.10
2017-11-30T23:50:03.948Z,38.30
2017-11-30T23:52:30.225Z,45.40
2017-11-30T23:54:56.652Z,38.90
2017-11-30T23:57:22.940Z,38.23
2017-11-30T23:59:49.283Z,36.50
